Time;durP1;ratioP1;P1;durP2;ratioP2;P2;SDS_P1;SDS_P2;PMS_P1;PMS_P2;Temp;Humidity;BMP_temperature;BMP_pressure;BME280_temperature;BME280_humidity;BME280_pressure;Samples;Min_cycle;Max_cycle;Signal;HPM_P1;HPM_P2
2022/01/26 00:00:07;;;;;;;65.88;26.05;;;;;;;;;;5090161;28;20059;-61
2022/01/26 00:05:48;;;;;;;63.75;25.95;;;;;;;;;;5074338;28;20411;-61
2022/01/26 00:08:14;;;;;;;62.78;24.67;;;;;;;;;;5074431;28;20051;-61
2022/01/26 00:10:40;;;;;;;61.58;25.00;;;;;;;;;;5078089;28;20401;-61
2022/01/26 00:13:06;;;;;;;71.60;26.95;;;;;;;;;;5074685;28;20045;-61
2022/01/26 00:15:32;;;;;;;66.07;25.92;;;;;;;;;;5075537;28;20507;-62
2022/01/26 00:17:58;;;;;;;61.67;24.88;;;;;;;;;;5093515;27;20042;-61
2022/01/26 00:20:31;;;;;;;67.45;26.33;;;;;;;;;;5131858;27;20043;-61
2022/01/26 00:23:08;;;;;;;65.68;26.05;;;;;;;;;;5133460;27;20094;-61
2022/01/26 00:25:42;;;;;;;69.55;25.75;;;;;;;;;;5131742;27;20079;-61
2022/01/26 00:28:31;;;;;;;65.43;26.10;;;;;;;;;;5134773;27;20161;-61
2022/01/26 00:38:36;;;;;;;72.53;27.20;;;;;;;;;;5131599;27;20046;-60
2022/01/26 00:41:05;;;;;;;67.32;25.63;;;;;;;;;;5132570;27;20042;-61
2022/01/26 00:43:31;;;;;;;60.97;24.00;;;;;;;;;;5131155;27;20401;-61
2022/01/26 00:45:59;;;;;;;68.72;25.83;;;;;;;;;;5128824;27;20439;-61
2022/01/26 00:48:26;;;;;;;60.03;25.35;;;;;;;;;;5130791;27;20088;-61
2022/01/26 00:50:53;;;;;;;63.67;24.95;;;;;;;;;;5123417;27;20108;-60
2022/01/26 00:53:22;;;;;;;66.28;26.13;;;;;;;;;;5121845;27;20152;-61
2022/01/26 00:55:48;;;;;;;66.07;24.48;;;;;;;;;;5129567;27;20126;-61
2022/01/26 00:58:14;;;;;;;65.30;25.73;;;;;;;;;;5128545;27;20139;-61
2022/01/26 01:00:40;;;;;;;61.78;24.60;;;;;;;;;;5130989;27;20051;-61
2022/01/26 01:03:07;;;;;;;63.13;25.33;;;;;;;;;;5132028;27;20145;-61
2022/01/26 01:05:38;;;;;;;63.33;25.33;;;;;;;;;;5130257;27;20035;-61
2022/01/26 01:08:10;;;;;;;70.80;26.13;;;;;;;;;;5129090;27;20039;-60
2022/01/26 01:10:36;;;;;;;63.37;24.63;;;;;;;;;;5122505;27;20096;-62
2022/01/26 01:13:02;;;;;;;64.57;25.25;;;;;;;;;;5126600;27;20296;-61
2022/01/26 01:15:30;;;;;;;67.30;24.92;;;;;;;;;;5130131;27;20043;-61
2022/01/26 01:18:36;;;;;;;71.35;26.42;;;;;;;;;;5124523;27;20031;-61
2022/01/26 01:21:14;;;;;;;64.88;26.00;;;;;;;;;;5126311;27;20041;-62
2022/01/26 01:31:58;;;;;;;66.10;25.88;;;;;;;;;;5128737;27;20092;-61
2022/01/26 01:34:03;;;;;;;67.15;24.92;;;;;;;;;;5121689;27;21218;-60
2022/01/26 01:36:29;;;;;;;65.40;25.08;;;;;;;;;;5130668;27;20493;-61
2022/01/26 01:38:57;;;;;;;64.90;25.50;;;;;;;;;;5128503;27;20039;-61
2022/01/26 01:41:23;;;;;;;69.97;25.73;;;;;;;;;;5132087;27;20035;-61
2022/01/26 01:43:49;;;;;;;70.75;26.83;;;;;;;;;;5131178;27;20042;-61
2022/01/26 01:46:15;;;;;;;74.03;27.20;;;;;;;;;;5132337;27;20405;-61
2022/01/26 01:48:41;;;;;;;70.07;26.30;;;;;;;;;;5131418;27;20092;-60
2022/01/26 01:51:10;;;;;;;70.18;27.27;;;;;;;;;;5130771;27;20069;-61
2022/01/26 01:53:40;;;;;;;70.40;26.38;;;;;;;;;;5129428;27;20031;-61
2022/01/26 01:56:07;;;;;;;73.65;26.85;;;;;;;;;;5131570;27;20043;-61
2022/01/26 01:58:34;;;;;;;71.63;26.83;;;;;;;;;;5127392;27;20081;-61
2022/01/26 02:01:00;;;;;;;71.78;26.27;;;;;;;;;;5129784;27;20079;-61
2022/01/26 02:03:26;;;;;;;73.55;27.45;;;;;;;;;;5130205;27;20046;-61
2022/01/26 02:05:53;;;;;;;72.60;27.38;;;;;;;;;;5130597;27;20035;-60
2022/01/26 02:08:19;;;;;;;76.43;28.00;;;;;;;;;;5126859;27;20038;-60
2022/01/26 02:10:45;;;;;;;78.50;27.85;;;;;;;;;;5127425;27;20042;-60
2022/01/26 02:13:52;;;;;;;76.28;28.65;;;;;;;;;;5130818;27;20061;-61
2022/01/26 02:16:16;;;;;;;77.25;28.45;;;;;;;;;;5126584;27;20531;-60
2022/01/26 02:22:00;;;;;;;72.13;26.70;;;;;;;;;;5130228;27;20043;-61
2022/01/26 02:57:10;;;;;;;73.38;27.02;;;;;;;;;;5118676;27;20137;-62
2022/01/26 03:02:20;;;;;;;74.50;25.52;;;;;;;;;;5128964;27;20107;-61
2022/01/26 03:04:50;;;;;;;75.10;26.27;;;;;;;;;;5125308;28;20512;-61
2022/01/26 03:07:26;;;;;;;74.05;25.67;;;;;;;;;;5126011;27;20044;-61
2022/01/26 03:10:01;;;;;;;79.25;26.25;;;;;;;;;;5127281;28;20035;-61
2022/01/26 03:12:36;;;;;;;72.75;26.90;;;;;;;;;;5133857;27;20039;-60
2022/01/26 03:15:15;;;;;;;71.40;25.83;;;;;;;;;;5129122;27;20043;-61
2022/01/26 03:20:13;;;;;;;75.35;26.17;;;;;;;;;;5130447;28;20081;-61
2022/01/26 03:35:56;;;;;;;68.57;24.92;;;;;;;;;;5125045;27;20038;-61
2022/01/26 03:38:38;;;;;;;74.97;25.15;;;;;;;;;;5126539;27;20047;-61
2022/01/26 03:43:36;;;;;;;67.18;24.77;;;;;;;;;;5128929;27;20049;-61
2022/01/26 03:46:02;;;;;;;70.82;25.33;;;;;;;;;;5134444;27;20435;-61
2022/01/26 03:48:28;;;;;;;66.38;23.40;;;;;;;;;;5131854;27;20042;-61
2022/01/26 03:50:54;;;;;;;67.50;23.00;;;;;;;;;;5132378;27;20397;-62
2022/01/26 03:53:20;;;;;;;63.85;22.25;;;;;;;;;;5135252;27;20039;-61
2022/01/26 03:55:46;;;;;;;66.38;22.92;;;;;;;;;;5132276;27;20046;-61
2022/01/26 03:58:13;;;;;;;61.83;23.23;;;;;;;;;;5132712;27;20130;-61
2022/01/26 04:00:39;;;;;;;67.18;23.35;;;;;;;;;;5132817;27;20780;-61
2022/01/26 04:03:05;;;;;;;63.13;23.45;;;;;;;;;;5137966;27;20051;-61
2022/01/26 04:05:31;;;;;;;60.70;22.70;;;;;;;;;;5132339;27;20424;-61
2022/01/26 04:08:03;;;;;;;67.75;23.73;;;;;;;;;;5131878;27;20031;-61
2022/01/26 04:13:14;;;;;;;68.18;23.45;;;;;;;;;;5131383;27;20039;-60
2022/01/26 04:15:40;;;;;;;63.00;23.38;;;;;;;;;;5132430;27;20958;-60
2022/01/26 04:18:11;;;;;;;57.90;21.33;;;;;;;;;;5132029;27;20153;-61
2022/01/26 04:20:41;;;;;;;66.45;22.20;;;;;;;;;;5133441;27;20123;-60
2022/01/26 04:25:34;;;;;;;56.80;20.38;;;;;;;;;;5130869;27;20280;-60
2022/01/26 04:28:05;;;;;;;63.00;20.70;;;;;;;;;;5129910;27;20035;-61
2022/01/26 04:30:32;;;;;;;59.97;21.40;;;;;;;;;;5133391;27;20135;-61
2022/01/26 04:33:03;;;;;;;62.42;21.23;;;;;;;;;;5133187;27;20058;-61
2022/01/26 04:35:29;;;;;;;63.20;22.83;;;;;;;;;;5122389;27;20063;-61
2022/01/26 04:38:21;;;;;;;62.15;21.00;;;;;;;;;;5122727;27;20034;-61
2022/01/26 04:41:01;;;;;;;58.95;21.70;;;;;;;;;;5132021;27;20031;-61
2022/01/26 04:43:32;;;;;;;61.97;20.65;;;;;;;;;;5132964;27;20043;-61
2022/01/26 04:45:58;;;;;;;57.00;21.10;;;;;;;;;;5131090;27;20051;-61
2022/01/26 04:48:25;;;;;;;62.38;21.70;;;;;;;;;;5130513;27;20473;-61
2022/01/26 04:50:51;;;;;;;57.63;22.33;;;;;;;;;;5133017;27;20540;-61
2022/01/26 04:53:17;;;;;;;64.95;21.80;;;;;;;;;;5133557;27;20432;-61
2022/01/26 04:55:43;;;;;;;64.70;22.25;;;;;;;;;;5132120;27;20039;-60
2022/01/26 04:58:09;;;;;;;58.28;20.83;;;;;;;;;;5119663;27;20069;-60
2022/01/26 05:00:35;;;;;;;55.55;21.10;;;;;;;;;;5133359;27;20090;-60
2022/01/26 05:03:01;;;;;;;51.58;19.38;;;;;;;;;;5132458;27;20134;-60
2022/01/26 05:05:27;;;;;;;56.95;20.63;;;;;;;;;;5129640;27;20050;-62
2022/01/26 05:07:54;;;;;;;59.20;20.48;;;;;;;;;;5126716;27;20091;-61
2022/01/26 05:10:20;;;;;;;54.97;19.30;;;;;;;;;;5116125;27;20043;-61
2022/01/26 05:12:46;;;;;;;61.75;19.35;;;;;;;;;;5131189;27;20565;-61
2022/01/26 05:15:12;;;;;;;60.60;20.63;;;;;;;;;;5115082;27;20078;-60
2022/01/26 05:17:40;;;;;;;50.72;18.67;;;;;;;;;;5126852;27;20038;-60
2022/01/26 05:20:08;;;;;;;56.42;20.80;;;;;;;;;;5131680;27;20043;-61
2022/01/26 05:22:34;;;;;;;54.08;19.85;;;;;;;;;;5137751;27;20121;-61
2022/01/26 05:25:00;;;;;;;52.08;17.98;;;;;;;;;;5118536;27;20040;-61
2022/01/26 05:27:26;;;;;;;56.83;19.27;;;;;;;;;;5132035;27;20485;-60
2022/01/26 05:29:52;;;;;;;54.95;18.88;;;;;;;;;;5132459;27;20039;-61
2022/01/26 05:32:19;;;;;;;54.15;19.33;;;;;;;;;;5131419;27;20481;-61
2022/01/26 05:34:45;;;;;;;50.00;18.77;;;;;;;;;;5131785;27;20477;-61
2022/01/26 05:37:11;;;;;;;50.28;18.58;;;;;;;;;;5130362;27;20047;-60
2022/01/26 05:39:38;;;;;;;47.13;17.35;;;;;;;;;;5130674;27;20540;-59
2022/01/26 05:42:05;;;;;;;51.45;17.77;;;;;;;;;;5131492;27;20562;-61
2022/01/26 05:44:31;;;;;;;49.63;18.30;;;;;;;;;;5132061;27;20397;-60
2022/01/26 05:46:57;;;;;;;48.88;16.73;;;;;;;;;;5129245;27;20070;-61
2022/01/26 05:49:25;;;;;;;46.95;17.52;;;;;;;;;;5129648;27;20084;-61
2022/01/26 05:51:51;;;;;;;48.97;17.70;;;;;;;;;;5120506;27;20043;-61
2022/01/26 05:54:17;;;;;;;48.78;16.98;;;;;;;;;;5132120;27;20087;-60
2022/01/26 05:56:44;;;;;;;49.95;17.42;;;;;;;;;;5129184;27;20404;-60
2022/01/26 05:59:10;;;;;;;49.30;18.08;;;;;;;;;;5133151;27;20042;-62
2022/01/26 06:01:37;;;;;;;44.15;15.18;;;;;;;;;;5126034;27;20083;-61
2022/01/26 06:04:03;;;;;;;48.10;16.10;;;;;;;;;;5127898;27;20082;-60
2022/01/26 06:06:29;;;;;;;49.50;16.38;;;;;;;;;;5127064;27;20039;-60
2022/01/26 06:08:55;;;;;;;46.10;17.20;;;;;;;;;;5125404;27;20027;-61
2022/01/26 06:11:21;;;;;;;41.70;16.20;;;;;;;;;;5126398;27;20050;-61
2022/01/26 06:13:47;;;;;;;45.65;17.40;;;;;;;;;;5123060;27;20492;-61
2022/01/26 06:16:14;;;;;;;47.72;16.88;;;;;;;;;;5129789;27;20050;-60
2022/01/26 06:18:40;;;;;;;44.97;17.63;;;;;;;;;;5128371;27;20039;-59
2022/01/26 06:21:08;;;;;;;40.67;15.88;;;;;;;;;;5130004;27;20043;-61
2022/01/26 06:23:34;;;;;;;48.38;18.48;;;;;;;;;;5131050;27;20046;-60
2022/01/26 06:26:00;;;;;;;47.22;17.77;;;;;;;;;;5131182;27;20420;-60
2022/01/26 06:28:29;;;;;;;45.67;16.90;;;;;;;;;;5127643;27;20067;-60
2022/01/26 06:31:00;;;;;;;48.25;18.15;;;;;;;;;;5130934;27;20031;-61
2022/01/26 06:33:27;;;;;;;43.88;15.95;;;;;;;;;;5130456;27;20038;-61
2022/01/26 06:35:53;;;;;;;49.75;17.65;;;;;;;;;;5131631;27;20078;-63
2022/01/26 06:38:19;;;;;;;44.15;16.48;;;;;;;;;;5131115;27;20051;-63
2022/01/26 06:40:45;;;;;;;43.63;18.13;;;;;;;;;;5112874;27;20051;-62
2022/01/26 06:43:14;;;;;;;44.35;17.05;;;;;;;;;;5129488;27;20125;-61
2022/01/26 06:45:55;;;;;;;51.10;18.45;;;;;;;;;;5131111;27;20047;-62
2022/01/26 06:50:56;;;;;;;54.78;20.27;;;;;;;;;;5131294;27;20035;-63
2022/01/26 06:53:22;;;;;;;47.15;18.73;;;;;;;;;;5130902;27;20031;-62
2022/01/26 06:55:48;;;;;;;57.33;20.08;;;;;;;;;;5130926;27;20035;-62
2022/01/26 06:58:14;;;;;;;46.88;19.00;;;;;;;;;;5130301;27;20031;-61
2022/01/26 07:00:41;;;;;;;53.53;20.52;;;;;;;;;;5130401;27;20047;-62
2022/01/26 07:03:07;;;;;;;59.08;21.33;;;;;;;;;;5130829;27;20394;-62
2022/01/26 07:05:33;;;;;;;54.40;20.83;;;;;;;;;;5112809;28;20049;-62
2022/01/26 07:07:59;;;;;;;57.35;20.92;;;;;;;;;;5130510;28;20431;-62
2022/01/26 07:10:25;;;;;;;54.83;21.10;;;;;;;;;;5120686;28;20043;-63
2022/01/26 07:12:51;;;;;;;53.38;20.77;;;;;;;;;;5130536;28;20047;-62
2022/01/26 07:23:29;;;;;;;62.95;23.52;;;;;;;;;;5127634;28;20078;-61
2022/01/26 07:25:55;;;;;;;62.25;23.70;;;;;;;;;;5127949;28;20086;-63
2022/01/26 07:28:21;;;;;;;67.75;24.83;;;;;;;;;;5121829;28;20118;-62
2022/01/26 07:30:47;;;;;;;65.97;26.08;;;;;;;;;;5129413;28;20070;-63
2022/01/26 07:33:13;;;;;;;78.63;28.95;;;;;;;;;;5130547;28;20390;-62
2022/01/26 07:35:39;;;;;;;76.07;28.52;;;;;;;;;;5130706;28;20038;-63
2022/01/26 07:38:05;;;;;;;73.50;28.70;;;;;;;;;;5130237;28;20088;-61
2022/01/26 07:40:32;;;;;;;77.03;30.35;;;;;;;;;;5113941;27;20477;-62
2022/01/26 07:42:58;;;;;;;74.85;30.45;;;;;;;;;;5128061;27;20508;-62
2022/01/26 07:45:24;;;;;;;78.53;30.05;;;;;;;;;;5125479;28;20061;-63
2022/01/26 07:47:53;;;;;;;84.97;32.28;;;;;;;;;;5119930;28;20545;-61
2022/01/26 07:50:20;;;;;;;78.97;31.67;;;;;;;;;;5130596;27;20032;-62
2022/01/26 07:52:47;;;;;;;88.88;36.00;;;;;;;;;;5112879;28;20043;-62
2022/01/26 07:55:17;;;;;;;83.45;32.35;;;;;;;;;;5116653;28;20043;-63
2022/01/26 07:57:44;;;;;;;89.32;33.50;;;;;;;;;;5113480;28;20379;-62
2022/01/26 08:00:11;;;;;;;90.85;35.85;;;;;;;;;;5129390;28;20046;-62
2022/01/26 08:02:37;;;;;;;91.55;36.00;;;;;;;;;;5128531;27;20059;-61
2022/01/26 08:05:04;;;;;;;94.25;35.92;;;;;;;;;;5130079;27;20579;-62
2022/01/26 08:07:30;;;;;;;96.15;36.83;;;;;;;;;;5126179;28;20126;-62
2022/01/26 08:09:56;;;;;;;96.28;38.72;;;;;;;;;;5134925;27;20062;-63
2022/01/26 08:12:22;;;;;;;97.50;39.50;;;;;;;;;;5133630;27;20035;-63
2022/01/26 08:14:48;;;;;;;101.35;39.28;;;;;;;;;;5129570;27;20594;-63
2022/01/26 08:17:17;;;;;;;100.63;38.88;;;;;;;;;;5129682;27;20512;-63
2022/01/26 08:19:43;;;;;;;105.20;40.40;;;;;;;;;;5134531;27;20405;-61
2022/01/26 08:22:16;;;;;;;102.18;40.60;;;;;;;;;;5115859;27;20047;-61
2022/01/26 08:24:42;;;;;;;102.57;40.25;;;;;;;;;;5134114;27;20042;-62
2022/01/26 08:27:11;;;;;;;100.75;39.97;;;;;;;;;;5134195;27;20046;-61
2022/01/26 08:30:04;;;;;;;104.90;40.20;;;;;;;;;;5133965;27;20035;-61
2022/01/26 08:32:26;;;;;;;98.07;40.28;;;;;;;;;;5133660;27;20039;-61
2022/01/26 08:34:53;;;;;;;103.68;40.47;;;;;;;;;;5134336;27;20093;-62
2022/01/26 08:37:20;;;;;;;107.40;42.53;;;;;;;;;;5133757;27;20043;-62
2022/01/26 08:39:46;;;;;;;109.80;42.80;;;;;;;;;;5115259;27;20095;-61
2022/01/26 08:42:12;;;;;;;109.50;41.28;;;;;;;;;;5133551;27;20075;-61
2022/01/26 08:44:38;;;;;;;105.03;41.42;;;;;;;;;;5133532;27;20035;-63
2022/01/26 08:47:05;;;;;;;114.82;42.17;;;;;;;;;;5134076;27;20497;-62
2022/01/26 08:49:31;;;;;;;113.63;43.78;;;;;;;;;;5133737;27;20031;-63
2022/01/26 08:51:57;;;;;;;113.68;43.85;;;;;;;;;;5134056;27;20035;-63
2022/01/26 08:54:23;;;;;;;113.35;43.30;;;;;;;;;;5133770;27;20038;-62
2022/01/26 08:56:53;;;;;;;108.80;42.60;;;;;;;;;;5133707;27;20039;-62
2022/01/26 08:59:20;;;;;;;112.30;42.38;;;;;;;;;;5115588;27;20050;-62
2022/01/26 09:01:46;;;;;;;115.10;43.40;;;;;;;;;;5133503;27;20051;-62
2022/01/26 09:04:12;;;;;;;113.70;42.60;;;;;;;;;;5134017;27;20047;-62
2022/01/26 09:06:49;;;;;;;114.50;44.75;;;;;;;;;;5133369;27;20058;-62
2022/01/26 09:09:16;;;;;;;118.30;42.38;;;;;;;;;;5133564;27;20122;-63
2022/01/26 09:11:42;;;;;;;115.95;44.20;;;;;;;;;;5133648;27;20038;-62
2022/01/26 09:14:10;;;;;;;120.53;44.70;;;;;;;;;;5133826;27;20046;-61
2022/01/26 09:16:37;;;;;;;114.03;41.92;;;;;;;;;;5133246;27;20043;-63
2022/01/26 09:19:26;;;;;;;119.82;43.78;;;;;;;;;;5117883;27;20046;-63
2022/01/26 09:21:49;;;;;;;116.55;43.60;;;;;;;;;;5113204;27;20512;-62
2022/01/26 09:24:15;;;;;;;119.43;44.38;;;;;;;;;;5133303;27;20118;-63
2022/01/26 09:26:42;;;;;;;114.05;43.03;;;;;;;;;;5133190;27;20535;-62
2022/01/26 09:29:08;;;;;;;119.13;44.53;;;;;;;;;;5133288;27;20042;-62
2022/01/26 09:31:34;;;;;;;118.75;42.22;;;;;;;;;;5133185;27;20160;-62
2022/01/26 09:34:00;;;;;;;116.05;43.53;;;;;;;;;;5133018;27;20031;-61
2022/01/26 09:36:27;;;;;;;111.90;40.97;;;;;;;;;;5133182;27;20542;-62
2022/01/26 09:38:53;;;;;;;120.40;42.40;;;;;;;;;;5132851;27;20035;-61
2022/01/26 09:41:20;;;;;;;110.22;40.45;;;;;;;;;;5133124;27;20403;-62
2022/01/26 09:43:46;;;;;;;113.82;41.05;;;;;;;;;;5132759;27;20046;-62
2022/01/26 09:46:13;;;;;;;105.93;40.20;;;;;;;;;;5117013;27;20054;-62
2022/01/26 09:48:41;;;;;;;109.55;42.08;;;;;;;;;;5130606;27;20067;-62
2022/01/26 09:51:07;;;;;;;102.85;37.78;;;;;;;;;;5133018;27;20038;-63
2022/01/26 09:53:35;;;;;;;97.47;37.40;;;;;;;;;;5132652;27;20046;-62
2022/01/26 09:56:01;;;;;;;97.78;37.30;;;;;;;;;;5132524;27;20039;-62
2022/01/26 09:58:28;;;;;;;98.93;39.25;;;;;;;;;;5132722;27;20067;-61
2022/01/26 10:00:58;;;;;;;102.80;38.65;;;;;;;;;;5132170;27;20140;-62
2022/01/26 10:03:28;;;;;;;98.65;36.63;;;;;;;;;;5132513;27;20533;-63
2022/01/26 10:05:54;;;;;;;100.78;39.40;;;;;;;;;;5132193;27;20046;-62
2022/01/26 10:17:02;;;;;;;93.90;38.75;;;;;;;;;;5132588;27;20044;-62
2022/01/26 10:19:09;;;;;;;86.93;34.53;;;;;;;;;;5124824;27;20084;-62
2022/01/26 10:21:48;;;;;;;75.97;31.33;;;;;;;;;;5132362;27;20076;-62
2022/01/26 10:24:15;;;;;;;95.05;34.13;;;;;;;;;;5132306;27;20050;-62
2022/01/26 10:26:46;;;;;;;77.40;31.45;;;;;;;;;;5132138;27;20083;-62
2022/01/26 10:29:15;;;;;;;82.93;31.80;;;;;;;;;;5128274;27;20065;-62
2022/01/26 10:31:41;;;;;;;75.20;31.63;;;;;;;;;;5127393;27;20039;-63
2022/01/26 10:34:10;;;;;;;77.53;33.08;;;;;;;;;;5131339;27;20042;-62
2022/01/26 10:36:36;;;;;;;71.70;30.10;;;;;;;;;;5131547;27;20051;-62
2022/01/26 10:39:09;;;;;;;74.25;30.95;;;;;;;;;;5131544;27;20571;-62
2022/01/26 10:41:36;;;;;;;75.70;32.83;;;;;;;;;;5131588;27;20043;-62
2022/01/26 10:44:03;;;;;;;78.38;32.05;;;;;;;;;;5131159;27;20573;-61
2022/01/26 10:46:31;;;;;;;78.45;33.17;;;;;;;;;;5131753;27;20400;-62
2022/01/26 10:49:42;;;;;;;74.30;31.23;;;;;;;;;;5131030;27;20106;-62
2022/01/26 10:52:20;;;;;;;76.47;31.95;;;;;;;;;;5128739;27;20396;-63
2022/01/26 10:54:46;;;;;;;77.93;33.63;;;;;;;;;;5131589;27;20031;-62
2022/01/26 10:57:12;;;;;;;74.07;30.52;;;;;;;;;;5131193;27;20046;-63
2022/01/26 10:59:40;;;;;;;79.97;31.35;;;;;;;;;;5131162;27;20050;-63
2022/01/26 11:02:07;;;;;;;78.18;33.17;;;;;;;;;;5131015;27;20386;-63
2022/01/26 11:04:34;;;;;;;84.05;32.08;;;;;;;;;;5131582;27;20127;-63
2022/01/26 11:07:01;;;;;;;76.70;32.40;;;;;;;;;;5131066;28;20039;-62
2022/01/26 11:09:29;;;;;;;79.03;31.80;;;;;;;;;;5131198;28;20435;-64
2022/01/26 11:12:16;;;;;;;77.53;30.92;;;;;;;;;;5131334;27;20065;-64
2022/01/26 11:14:50;;;;;;;77.57;30.80;;;;;;;;;;5096200;28;20088;-62
2022/01/26 11:17:37;;;;;;;73.07;30.25;;;;;;;;;;5130210;28;20064;-63
2022/01/26 11:20:44;;;;;;;68.38;28.38;;;;;;;;;;5130890;27;20047;-61
2022/01/26 11:23:10;;;;;;;77.15;33.05;;;;;;;;;;5091078;28;20047;-62
2022/01/26 11:25:43;;;;;;;74.50;31.75;;;;;;;;;;5108231;28;20084;-63
2022/01/26 11:28:20;;;;;;;69.57;30.55;;;;;;;;;;5107927;28;20493;-62
2022/01/26 11:30:46;;;;;;;71.10;30.98;;;;;;;;;;5108156;28;20114;-62
2022/01/26 11:33:20;;;;;;;67.28;29.00;;;;;;;;;;5107894;28;20043;-63
2022/01/26 11:35:48;;;;;;;75.32;31.42;;;;;;;;;;5108112;28;20063;-62
2022/01/26 11:46:54;;;;;;;71.22;28.55;;;;;;;;;;5071188;28;20045;-62
2022/01/26 11:49:46;;;;;;;74.35;30.85;;;;;;;;;;5071176;28;20037;-61
2022/01/26 11:52:23;;;;;;;69.53;29.42;;;;;;;;;;5052141;28;20138;-63
2022/01/26 11:54:56;;;;;;;70.00;29.67;;;;;;;;;;5057160;28;20048;-62
2022/01/26 11:57:37;;;;;;;71.45;28.77;;;;;;;;;;5071093;28;20105;-62
2022/01/26 12:00:07;;;;;;;68.82;29.27;;;;;;;;;;5071025;28;20122;-62
2022/01/26 12:02:51;;;;;;;64.15;28.75;;;;;;;;;;5053840;28;20071;-62
2022/01/26 12:05:20;;;;;;;69.00;29.20;;;;;;;;;;5053997;28;20056;-62
2022/01/26 12:08:00;;;;;;;65.88;28.23;;;;;;;;;;5070896;28;20123;-61
2022/01/26 12:10:30;;;;;;;73.32;29.42;;;;;;;;;;5090764;28;20422;-62
2022/01/26 12:13:12;;;;;;;67.10;29.30;;;;;;;;;;5091131;28;20040;-62
2022/01/26 12:15:54;;;;;;;70.10;28.85;;;;;;;;;;5090897;28;20624;-62
2022/01/26 12:18:29;;;;;;;66.80;28.63;;;;;;;;;;5111761;27;20130;-62
2022/01/26 12:32:20;;;;;;;63.55;26.98;;;;;;;;;;5133941;27;20047;-62
2022/01/26 12:45:17;;;;;;;76.75;27.30;;;;;;;;;;5133979;27;20138;-62
2022/01/26 12:47:43;;;;;;;67.63;26.30;;;;;;;;;;5133757;27;20378;-62
2022/01/26 12:50:09;;;;;;;74.18;29.13;;;;;;;;;;5133831;27;20571;-62
2022/01/26 12:52:36;;;;;;;78.88;28.58;;;;;;;;;;5133239;27;20062;-62
2022/01/26 12:55:03;;;;;;;66.70;27.52;;;;;;;;;;5132552;27;20039;-62
2022/01/26 12:57:29;;;;;;;68.70;27.42;;;;;;;;;;5133420;27;20035;-62
2022/01/26 13:00:01;;;;;;;69.65;26.98;;;;;;;;;;5133511;27;20035;-62
2022/01/26 13:02:27;;;;;;;65.65;27.40;;;;;;;;;;5133161;27;20055;-62
2022/01/26 13:05:00;;;;;;;65.80;27.40;;;;;;;;;;5115042;27;20050;-61
2022/01/26 13:07:26;;;;;;;64.97;25.85;;;;;;;;;;5133581;27;20109;-61
2022/01/26 13:09:52;;;;;;;64.00;25.98;;;;;;;;;;5133216;27;20489;-62
2022/01/26 13:12:28;;;;;;;68.38;25.58;;;;;;;;;;5133610;27;20123;-62
2022/01/26 13:15:07;;;;;;;60.80;25.98;;;;;;;;;;5133349;27;20039;-62
2022/01/26 13:17:40;;;;;;;65.53;25.83;;;;;;;;;;5133232;27;20483;-63
2022/01/26 13:34:40;;;;;;;64.55;26.63;;;;;;;;;;5133016;27;20122;-62
2022/01/26 13:36:47;;;;;;;65.53;26.13;;;;;;;;;;5123611;27;20100;-63
2022/01/26 13:39:35;;;;;;;69.93;27.83;;;;;;;;;;5132850;27;20521;-61
2022/01/26 13:44:54;;;;;;;77.28;28.27;;;;;;;;;;5132503;27;20531;-62
2022/01/26 13:55:56;;;;;;;70.80;28.50;;;;;;;;;;5132530;27;20446;-62
2022/01/26 14:00:55;;;;;;;64.05;26.52;;;;;;;;;;5131991;27;20046;-62
2022/01/26 14:03:24;;;;;;;62.00;26.70;;;;;;;;;;5115408;27;20055;-62
2022/01/26 14:05:50;;;;;;;66.50;26.52;;;;;;;;;;5130659;27;20039;-62
2022/01/26 14:08:16;;;;;;;65.82;26.35;;;;;;;;;;5132168;27;20469;-62
2022/01/26 14:10:46;;;;;;;67.70;28.88;;;;;;;;;;5132519;27;20027;-62
2022/01/26 14:13:12;;;;;;;65.70;26.63;;;;;;;;;;5132058;27;20042;-63
2022/01/26 14:15:46;;;;;;;62.97;26.13;;;;;;;;;;5131847;27;20031;-62
2022/01/26 14:23:31;;;;;;;56.72;26.13;;;;;;;;;;5131894;27;20038;-63
2022/01/26 14:25:58;;;;;;;62.58;26.77;;;;;;;;;;5131389;27;20424;-63
2022/01/26 14:28:31;;;;;;;57.20;25.17;;;;;;;;;;5131892;27;20039;-62
2022/01/26 14:33:45;;;;;;;60.10;25.73;;;;;;;;;;5131803;27;20467;-63
2022/01/26 15:43:34;;;;;;;55.55;22.50;;;;;;;;;;5134877;27;20051;-62
2022/01/26 15:51:12;;;;;;;62.15;25.27;;;;;;;;;;5135079;27;20046;-64
2022/01/26 16:39:20;;;;;;;53.28;24.25;;;;;;;;;;5070532;28;20048;-61
2022/01/26 17:26:39;;;;;;;52.67;22.95;;;;;;;;;;5132779;27;20069;-63
2022/01/26 18:49:33;;;;;;;40.00;19.35;;;;;;;;;;5088199;28;20071;-61
2022/01/26 18:52:00;;;;;;;40.80;18.95;;;;;;;;;;5087919;28;20040;-62
2022/01/26 18:54:30;;;;;;;44.10;20.58;;;;;;;;;;5087462;28;20533;-62
2022/01/26 18:56:57;;;;;;;47.28;22.50;;;;;;;;;;5088013;28;20040;-62
2022/01/26 18:59:24;;;;;;;45.55;22.75;;;;;;;;;;5087980;28;20083;-61
2022/01/26 19:01:52;;;;;;;46.90;21.48;;;;;;;;;;5088239;28;20372;-61
2022/01/26 19:04:24;;;;;;;45.70;21.98;;;;;;;;;;5087668;28;20083;-62
2022/01/26 19:06:52;;;;;;;49.90;22.92;;;;;;;;;;5087925;28;20059;-63
2022/01/26 19:09:22;;;;;;;51.97;24.25;;;;;;;;;;5087816;28;20450;-61
2022/01/26 19:11:48;;;;;;;49.75;24.50;;;;;;;;;;5088211;28;20055;-61
2022/01/26 19:14:14;;;;;;;50.13;24.90;;;;;;;;;;5087840;28;20460;-62
2022/01/26 19:16:53;;;;;;;45.53;24.00;;;;;;;;;;5087868;28;20055;-60
2022/01/26 19:22:13;;;;;;;53.17;26.17;;;;;;;;;;5088013;28;20083;-64
2022/01/26 19:27:30;;;;;;;57.55;25.75;;;;;;;;;;5112745;28;20147;-62
2022/01/26 19:46:25;;;;;;;58.08;28.02;;;;;;;;;;5087590;28;20056;-61
2022/01/26 19:51:41;;;;;;;55.90;26.90;;;;;;;;;;5087399;28;20038;-62
2022/01/26 19:54:07;;;;;;;58.67;27.48;;;;;;;;;;5087409;28;20525;-61
2022/01/26 19:56:33;;;;;;;54.35;25.75;;;;;;;;;;5087262;28;20115;-64
2022/01/26 19:58:59;;;;;;;57.70;27.38;;;;;;;;;;5087542;28;20225;-61
2022/01/26 20:01:26;;;;;;;63.33;28.42;;;;;;;;;;5086472;28;20052;-61
2022/01/26 20:03:52;;;;;;;58.15;28.70;;;;;;;;;;5079180;28;20105;-60
2022/01/26 20:06:18;;;;;;;54.08;25.85;;;;;;;;;;5085541;28;20044;-60
2022/01/26 20:11:36;;;;;;;60.50;29.52;;;;;;;;;;5093973;27;20040;-60
2022/01/26 20:14:02;;;;;;;55.97;27.75;;;;;;;;;;5129175;27;20038;-60
2022/01/26 20:16:28;;;;;;;61.28;28.05;;;;;;;;;;5133863;27;20072;-61
2022/01/26 20:18:54;;;;;;;57.65;27.02;;;;;;;;;;5134098;27;20543;-59
2022/01/26 20:21:20;;;;;;;54.25;27.58;;;;;;;;;;5121580;27;20039;-60
2022/01/26 20:23:46;;;;;;;60.83;27.63;;;;;;;;;;5131794;27;20088;-60
2022/01/26 20:26:12;;;;;;;59.40;28.50;;;;;;;;;;5130412;27;20043;-60
2022/01/26 20:28:42;;;;;;;55.72;27.40;;;;;;;;;;5133110;27;20034;-61
2022/01/26 20:31:20;;;;;;;57.00;25.58;;;;;;;;;;5133787;27;20088;-61
2022/01/26 20:33:46;;;;;;;52.08;26.27;;;;;;;;;;5133350;27;20043;-60
2022/01/26 20:36:13;;;;;;;59.40;27.80;;;;;;;;;;5133834;27;20038;-59
2022/01/26 20:38:39;;;;;;;52.60;26.52;;;;;;;;;;5115037;27;20122;-60
2022/01/26 20:41:05;;;;;;;54.53;26.40;;;;;;;;;;5133350;27;20458;-60
2022/01/26 20:43:32;;;;;;;52.00;27.50;;;;;;;;;;5115121;27;20043;-59
2022/01/26 20:46:00;;;;;;;56.55;27.10;;;;;;;;;;5133848;27;20454;-61
2022/01/26 20:48:26;;;;;;;55.17;27.13;;;;;;;;;;5133324;27;20047;-60
2022/01/26 20:50:53;;;;;;;55.60;26.55;;;;;;;;;;5132498;27;20035;-60
2022/01/26 20:53:19;;;;;;;47.10;24.92;;;;;;;;;;5131964;27;20043;-59
2022/01/26 20:55:45;;;;;;;50.33;23.75;;;;;;;;;;5132991;27;20035;-59
2022/01/26 20:58:11;;;;;;;52.83;24.10;;;;;;;;;;5133366;27;20043;-60
2022/01/26 21:00:37;;;;;;;50.60;23.98;;;;;;;;;;5132695;27;20047;-59
2022/01/26 21:03:03;;;;;;;52.28;25.50;;;;;;;;;;5114521;27;20055;-59
2022/01/26 21:05:29;;;;;;;53.03;25.30;;;;;;;;;;5133044;27;20054;-60
2022/01/26 21:07:56;;;;;;;50.70;24.25;;;;;;;;;;5132730;27;20550;-60
2022/01/26 21:10:23;;;;;;;53.25;26.52;;;;;;;;;;5131208;27;20477;-59
2022/01/26 21:12:49;;;;;;;49.88;24.10;;;;;;;;;;5132925;27;20484;-59
2022/01/26 21:15:17;;;;;;;51.83;25.38;;;;;;;;;;5132689;27;20084;-60
2022/01/26 21:17:43;;;;;;;47.88;22.63;;;;;;;;;;5132457;27;20042;-61
2022/01/26 21:20:12;;;;;;;49.10;25.38;;;;;;;;;;5133220;27;20042;-59
2022/01/26 21:22:38;;;;;;;51.55;24.20;;;;;;;;;;5132639;27;20109;-59
2022/01/26 21:25:05;;;;;;;54.03;25.13;;;;;;;;;;5132477;27;20176;-59
2022/01/26 21:27:31;;;;;;;48.97;23.98;;;;;;;;;;5133012;27;20035;-60
2022/01/26 21:29:58;;;;;;;45.75;22.83;;;;;;;;;;5132704;27;20053;-60
2022/01/26 21:32:25;;;;;;;50.22;23.75;;;;;;;;;;5133216;27;20488;-59
2022/01/26 21:34:51;;;;;;;45.50;23.42;;;;;;;;;;5132696;27;20385;-59
2022/01/26 21:37:17;;;;;;;47.28;23.65;;;;;;;;;;5132276;27;20041;-59
2022/01/26 21:39:44;;;;;;;49.30;24.40;;;;;;;;;;5131476;27;20047;-59
2022/01/26 21:42:10;;;;;;;47.65;23.73;;;;;;;;;;5132201;27;20027;-60